sensor_id;sensor_type;location;lat;lon;timestamp;pressure;altitude;pressure_sealevel;temperature;humidity
37068;BME280;22982;42.848;25.468;2023-02-02T00:01:34;96171.06;;;-1.29;100.00
37068;BME280;22982;42.848;25.468;2023-02-02T00:06:40;96183.53;;;-1.05;100.00
37068;BME280;22982;42.848;25.468;2023-02-02T00:11:47;96173.59;;;-1.26;100.00
37068;BME280;22982;42.848;25.468;2023-02-02T00:16:53;96182.28;;;-1.33;100.00
37068;BME280;22982;42.848;25.468;2023-02-02T00:21:57;96194.63;;;-1.57;100.00
37068;BME280;22982;42.848;25.468;2023-02-02T00:26:59;96186.91;;;-1.59;100.00
37068;BME280;22982;42.848;25.468;2023-02-02T00:32:02;96216.34;;;-1.19;100.00
37068;BME280;22982;42.848;25.468;2023-02-02T00:37:04;96214.28;;;0.82;94.59
37068;BME280;22982;42.848;25.468;2023-02-02T00:42:15;96221.34;;;1.80;90.10
37068;BME280;22982;42.848;25.468;2023-02-02T00:47:20;96212.78;;;2.09;90.29
37068;BME280;22982;42.848;25.468;2023-02-02T00:52:23;96213.34;;;2.21;91.70
37068;BME280;22982;42.848;25.468;2023-02-02T00:57:25;96196.91;;;2.22;95.39
37068;BME280;22982;42.848;25.468;2023-02-02T01:02:27;96186.69;;;2.19;96.84
37068;BME280;22982;42.848;25.468;2023-02-02T01:07:29;96196.75;;;2.28;96.18
37068;BME280;22982;42.848;25.468;2023-02-02T01:12:32;96164.75;;;2.30;95.09
37068;BME280;22982;42.848;25.468;2023-02-02T01:17:34;96190.31;;;2.41;94.81
37068;BME280;22982;42.848;25.468;2023-02-02T01:22:36;96164.81;;;2.29;94.95
37068;BME280;22982;42.848;25.468;2023-02-02T01:27:39;96170.47;;;2.42;94.37
37068;BME280;22982;42.848;25.468;2023-02-02T01:32:43;96169.09;;;2.30;94.53
37068;BME280;22982;42.848;25.468;2023-02-02T01:37:46;96157.31;;;2.20;94.82
37068;BME280;22982;42.848;25.468;2023-02-02T01:42:48;96162.41;;;2.51;93.74
37068;BME280;22982;42.848;25.468;2023-02-02T01:47:54;96152.97;;;2.50;93.34
37068;BME280;22982;42.848;25.468;2023-02-02T01:52:59;96147.09;;;2.73;92.53
37068;BME280;22982;42.848;25.468;2023-02-02T01:58:08;96135.13;;;2.69;92.43
37068;BME280;22982;42.848;25.468;2023-02-02T02:03:15;96140.59;;;2.60;92.71
37068;BME280;22982;42.848;25.468;2023-02-02T02:08:24;96125.06;;;2.60;92.75
37068;BME280;22982;42.848;25.468;2023-02-02T02:13:28;96111.44;;;2.26;94.06
37068;BME280;22982;42.848;25.468;2023-02-02T02:19:37;96135.00;;;2.45;93.68
37068;BME280;22982;42.848;25.468;2023-02-02T02:36:06;96118.94;;;2.34;92.97
37068;BME280;22982;42.848;25.468;2023-02-02T02:41:21;96103.44;;;2.34;91.65
37068;BME280;22982;42.848;25.468;2023-02-02T02:46:24;96118.41;;;2.51;90.41
37068;BME280;22982;42.848;25.468;2023-02-02T02:51:45;96127.44;;;2.67;88.55
37068;BME280;22982;42.848;25.468;2023-02-02T03:07:39;96111.69;;;2.74;85.74
37068;BME280;22982;42.848;25.468;2023-02-02T03:12:47;96133.94;;;2.79;86.16
37068;BME280;22982;42.848;25.468;2023-02-02T03:17:51;96132.69;;;2.64;86.89
37068;BME280;22982;42.848;25.468;2023-02-02T03:22:54;96139.00;;;2.56;87.36
37068;BME280;22982;42.848;25.468;2023-02-02T03:27:57;96135.53;;;2.57;86.05
37068;BME280;22982;42.848;25.468;2023-02-02T03:33:00;96137.72;;;2.69;84.84
37068;BME280;22982;42.848;25.468;2023-02-02T03:38:02;96135.47;;;2.58;84.02
37068;BME280;22982;42.848;25.468;2023-02-02T03:43:05;96126.75;;;2.61;83.87
37068;BME280;22982;42.848;25.468;2023-02-02T03:48:07;96126.84;;;2.58;83.71
37068;BME280;22982;42.848;25.468;2023-02-02T03:53:09;96129.69;;;2.50;83.10
37068;BME280;22982;42.848;25.468;2023-02-02T03:58:11;96131.94;;;2.61;84.12
37068;BME280;22982;42.848;25.468;2023-02-02T04:03:14;96127.06;;;2.52;85.76
37068;BME280;22982;42.848;25.468;2023-02-02T04:08:16;96129.63;;;2.23;86.84
37068;BME280;22982;42.848;25.468;2023-02-02T04:13:18;96122.19;;;1.83;89.24
37068;BME280;22982;42.848;25.468;2023-02-02T04:18:20;96119.94;;;1.39;90.96
37068;BME280;22982;42.848;25.468;2023-02-02T04:23:23;96141.69;;;1.30;92.73
37068;BME280;22982;42.848;25.468;2023-02-02T04:28:26;96149.06;;;1.10;92.98
37068;BME280;22982;42.848;25.468;2023-02-02T04:33:28;96159.00;;;0.91;95.60
37068;BME280;22982;42.848;25.468;2023-02-02T04:38:31;96139.72;;;1.06;94.27
37068;BME280;22982;42.848;25.468;2023-02-02T04:43:34;96157.91;;;1.36;90.87
37068;BME280;22982;42.848;25.468;2023-02-02T04:48:37;96135.59;;;1.64;84.49
37068;BME280;22982;42.848;25.468;2023-02-02T04:53:42;96149.63;;;1.87;84.79
37068;BME280;22982;42.848;25.468;2023-02-02T04:58:44;96151.56;;;2.10;81.18
37068;BME280;22982;42.848;25.468;2023-02-02T05:03:48;96129.22;;;2.07;80.26
37068;BME280;22982;42.848;25.468;2023-02-02T05:08:50;96136.25;;;2.02;80.60
37068;BME280;22982;42.848;25.468;2023-02-02T05:13:53;96125.91;;;1.72;81.18
37068;BME280;22982;42.848;25.468;2023-02-02T05:18:56;96140.06;;;1.90;80.11
37068;BME280;22982;42.848;25.468;2023-02-02T05:24:00;96149.56;;;1.90;81.38
37068;BME280;22982;42.848;25.468;2023-02-02T05:29:03;96140.91;;;1.91;78.36
37068;BME280;22982;42.848;25.468;2023-02-02T05:34:07;96166.59;;;2.27;77.21
37068;BME280;22982;42.848;25.468;2023-02-02T05:39:12;96153.50;;;2.33;74.44
37068;BME280;22982;42.848;25.468;2023-02-02T05:44:14;96161.50;;;2.54;72.42
37068;BME280;22982;42.848;25.468;2023-02-02T05:49:17;96165.56;;;2.62;71.19
37068;BME280;22982;42.848;25.468;2023-02-02T05:54:19;96187.19;;;2.88;70.67
37068;BME280;22982;42.848;25.468;2023-02-02T05:59:21;96177.22;;;3.04;69.06
37068;BME280;22982;42.848;25.468;2023-02-02T06:04:24;96174.16;;;3.18;67.95
37068;BME280;22982;42.848;25.468;2023-02-02T06:09:26;96185.94;;;3.53;67.42
37068;BME280;22982;42.848;25.468;2023-02-02T06:14:28;96191.78;;;3.85;67.47
37068;BME280;22982;42.848;25.468;2023-02-02T06:19:31;96196.41;;;4.00;63.01
37068;BME280;22982;42.848;25.468;2023-02-02T06:24:33;96183.84;;;4.37;59.99
37068;BME280;22982;42.848;25.468;2023-02-02T06:29:35;96207.41;;;4.32;60.92
37068;BME280;22982;42.848;25.468;2023-02-02T06:34:45;96204.84;;;4.31;60.17
37068;BME280;22982;42.848;25.468;2023-02-02T06:39:47;96190.09;;;4.08;60.03
37068;BME280;22982;42.848;25.468;2023-02-02T06:44:49;96172.16;;;4.49;58.09
37068;BME280;22982;42.848;25.468;2023-02-02T06:49:52;96198.31;;;4.90;56.86
37068;BME280;22982;42.848;25.468;2023-02-02T06:54:54;96205.69;;;5.23;55.72
37068;BME280;22982;42.848;25.468;2023-02-02T06:59:56;96197.50;;;5.32;55.13
37068;BME280;22982;42.848;25.468;2023-02-02T07:04:58;96196.94;;;5.24;56.07
37068;BME280;22982;42.848;25.468;2023-02-02T07:10:01;96204.03;;;5.42;53.79
37068;BME280;22982;42.848;25.468;2023-02-02T07:15:03;96202.75;;;5.73;53.26
37068;BME280;22982;42.848;25.468;2023-02-02T07:20:06;96189.41;;;6.01;52.21
37068;BME280;22982;42.848;25.468;2023-02-02T07:25:08;96211.44;;;7.09;50.69
37068;BME280;22982;42.848;25.468;2023-02-02T07:30:11;96181.84;;;9.44;45.08
37068;BME280;22982;42.848;25.468;2023-02-02T07:35:14;96204.25;;;10.82;40.60
37068;BME280;22982;42.848;25.468;2023-02-02T07:40:16;96163.56;;;13.94;35.56
37068;BME280;22982;42.848;25.468;2023-02-02T07:45:19;96187.03;;;11.05;39.00
37068;BME280;22982;42.848;25.468;2023-02-02T07:50:36;96195.31;;;10.85;39.69
37068;BME280;22982;42.848;25.468;2023-02-02T07:55:39;96182.59;;;9.00;41.88
37068;BME280;22982;42.848;25.468;2023-02-02T08:00:41;96200.31;;;7.95;46.11
37068;BME280;22982;42.848;25.468;2023-02-02T08:05:43;96187.91;;;9.45;42.81
37068;BME280;22982;42.848;25.468;2023-02-02T08:10:49;96173.19;;;9.28;42.27
37068;BME280;22982;42.848;25.468;2023-02-02T08:15:52;96174.22;;;10.00;40.56
37068;BME280;22982;42.848;25.468;2023-02-02T08:20:57;96170.13;;;7.89;44.44
37068;BME280;22982;42.848;25.468;2023-02-02T08:31:13;96181.84;;;10.77;40.37
37068;BME280;22982;42.848;25.468;2023-02-02T08:36:18;96184.00;;;12.44;37.13
37068;BME280;22982;42.848;25.468;2023-02-02T08:41:22;96190.19;;;13.06;36.30
37068;BME280;22982;42.848;25.468;2023-02-02T08:46:25;96144.34;;;13.70;35.15
37068;BME280;22982;42.848;25.468;2023-02-02T08:51:27;96156.06;;;14.12;32.93
37068;BME280;22982;42.848;25.468;2023-02-02T08:56:29;96137.22;;;14.64;32.43
37068;BME280;22982;42.848;25.468;2023-02-02T09:01:32;96131.16;;;14.96;32.00
37068;BME280;22982;42.848;25.468;2023-02-02T09:06:38;96119.28;;;14.90;31.56
37068;BME280;22982;42.848;25.468;2023-02-02T09:11:43;96143.56;;;15.27;31.01
37068;BME280;22982;42.848;25.468;2023-02-02T09:16:45;96116.28;;;15.38;30.70
37068;BME280;22982;42.848;25.468;2023-02-02T09:21:49;96107.38;;;15.39;29.33
37068;BME280;22982;42.848;25.468;2023-02-02T09:26:51;96097.53;;;15.62;29.08
37068;BME280;22982;42.848;25.468;2023-02-02T09:31:53;96125.03;;;14.05;31.04
37068;BME280;22982;42.848;25.468;2023-02-02T09:36:56;96089.69;;;13.25;32.11
37068;BME280;22982;42.848;25.468;2023-02-02T09:47:21;96050.75;;;13.17;32.74
37068;BME280;22982;42.848;25.468;2023-02-02T09:52:32;96083.56;;;13.95;31.37
37068;BME280;22982;42.848;25.468;2023-02-02T09:57:44;96088.56;;;11.40;33.76
37068;BME280;22982;42.848;25.468;2023-02-02T10:02:50;96081.22;;;12.48;33.71
37068;BME280;22982;42.848;25.468;2023-02-02T10:07:57;96104.72;;;13.36;33.28
37068;BME280;22982;42.848;25.468;2023-02-02T10:13:09;96078.41;;;14.73;30.33
37068;BME280;22982;42.848;25.468;2023-02-02T10:18:35;96082.75;;;15.92;29.13
37068;BME280;22982;42.848;25.468;2023-02-02T10:23:43;96061.00;;;14.82;29.57
37068;BME280;22982;42.848;25.468;2023-02-02T10:29:27;96059.78;;;13.62;30.43
37068;BME280;22982;42.848;25.468;2023-02-02T10:45:47;96052.19;;;13.10;31.53
37068;BME280;22982;42.848;25.468;2023-02-02T10:50:53;96059.09;;;11.87;32.99
37068;BME280;22982;42.848;25.468;2023-02-02T10:56:05;96036.63;;;10.65;34.05
37068;BME280;22982;42.848;25.468;2023-02-02T11:01:12;96023.38;;;11.85;33.55
37068;BME280;22982;42.848;25.468;2023-02-02T11:06:19;95996.81;;;10.85;34.17
37068;BME280;22982;42.848;25.468;2023-02-02T11:11:44;96004.38;;;9.94;34.60
37068;BME280;22982;42.848;25.468;2023-02-02T11:17:03;96007.81;;;9.80;35.01
37068;BME280;22982;42.848;25.468;2023-02-02T11:22:27;96007.91;;;9.93;35.16
37068;BME280;22982;42.848;25.468;2023-02-02T11:27:32;95981.06;;;10.45;34.57
37068;BME280;22982;42.848;25.468;2023-02-02T11:32:36;95988.13;;;10.85;35.37
37068;BME280;22982;42.848;25.468;2023-02-02T11:43:02;95946.16;;;10.45;34.30
37068;BME280;22982;42.848;25.468;2023-02-02T11:48:16;95949.91;;;10.68;34.59
37068;BME280;22982;42.848;25.468;2023-02-02T11:53:45;95954.59;;;9.94;35.50
37068;BME280;22982;42.848;25.468;2023-02-02T11:58:50;95944.56;;;10.01;35.63
37068;BME280;22982;42.848;25.468;2023-02-02T12:03:58;95937.47;;;10.30;35.41
37068;BME280;22982;42.848;25.468;2023-02-02T12:09:11;95931.44;;;10.15;35.34
37068;BME280;22982;42.848;25.468;2023-02-02T12:20:09;95924.59;;;10.67;35.02
37068;BME280;22982;42.848;25.468;2023-02-02T12:30:31;95903.13;;;10.34;35.03
37068;BME280;22982;42.848;25.468;2023-02-02T12:46:58;95923.34;;;10.32;35.39
37068;BME280;22982;42.848;25.468;2023-02-02T13:02:43;96103.56;;;6.20;72.30
37068;BME280;22982;42.848;25.468;2023-02-02T13:07:55;96094.00;;;5.40;82.71
37068;BME280;22982;42.848;25.468;2023-02-02T13:13:03;96108.06;;;5.15;89.59
37068;BME280;22982;42.848;25.468;2023-02-02T13:18:40;96071.41;;;5.01;92.09
37068;BME280;22982;42.848;25.468;2023-02-02T13:23:49;96025.78;;;5.35;90.60
37068;BME280;22982;42.848;25.468;2023-02-02T13:29:06;96042.47;;;6.27;87.70
37068;BME280;22982;42.848;25.468;2023-02-02T13:39:44;96055.84;;;6.93;79.90
37068;BME280;22982;42.848;25.468;2023-02-02T13:44:56;96062.50;;;6.44;82.91
37068;BME280;22982;42.848;25.468;2023-02-02T13:50:04;96067.41;;;5.93;86.60
37068;BME280;22982;42.848;25.468;2023-02-02T13:55:33;96102.47;;;5.45;90.18
37068;BME280;22982;42.848;25.468;2023-02-02T14:00:42;96123.88;;;4.89;94.52
37068;BME280;22982;42.848;25.468;2023-02-02T14:11:21;96169.91;;;3.92;100.00
37068;BME280;22982;42.848;25.468;2023-02-02T14:26:50;96189.03;;;2.84;100.00
37068;BME280;22982;42.848;25.468;2023-02-02T14:31:54;96206.56;;;2.46;100.00
37068;BME280;22982;42.848;25.468;2023-02-02T14:37:00;96224.31;;;2.29;100.00
37068;BME280;22982;42.848;25.468;2023-02-02T14:52:59;96254.63;;;1.60;100.00
37068;BME280;22982;42.848;25.468;2023-02-02T14:58:04;96244.06;;;1.33;100.00
37068;BME280;22982;42.848;25.468;2023-02-02T15:09:25;96229.78;;;1.54;100.00
37068;BME280;22982;42.848;25.468;2023-02-02T15:20:01;96205.94;;;0.71;100.00
37068;BME280;22982;42.848;25.468;2023-02-02T15:25:33;96200.69;;;0.74;100.00
37068;BME280;22982;42.848;25.468;2023-02-02T15:30:41;96212.44;;;0.87;100.00
37068;BME280;22982;42.848;25.468;2023-02-02T15:35:46;96188.75;;;0.70;100.00
37068;BME280;22982;42.848;25.468;2023-02-02T15:40:49;96199.75;;;0.78;100.00
37068;BME280;22982;42.848;25.468;2023-02-02T15:45:53;96209.69;;;0.95;100.00
37068;BME280;22982;42.848;25.468;2023-02-02T15:51:05;96186.19;;;1.06;100.00
37068;BME280;22982;42.848;25.468;2023-02-02T16:01:29;96146.78;;;0.98;100.00
37068;BME280;22982;42.848;25.468;2023-02-02T16:06:34;96202.94;;;1.25;100.00
37068;BME280;22982;42.848;25.468;2023-02-02T16:11:41;96198.41;;;1.33;100.00
37068;BME280;22982;42.848;25.468;2023-02-02T16:16:45;96219.97;;;1.67;100.00
37068;BME280;22982;42.848;25.468;2023-02-02T16:21:57;96221.38;;;1.79;100.00
37068;BME280;22982;42.848;25.468;2023-02-02T16:27:09;96223.81;;;1.52;100.00
37068;BME280;22982;42.848;25.468;2023-02-02T16:32:30;96239.72;;;1.69;100.00
37068;BME280;22982;42.848;25.468;2023-02-02T16:37:34;96233.75;;;1.67;100.00
37068;BME280;22982;42.848;25.468;2023-02-02T16:42:37;96206.63;;;1.49;100.00
37068;BME280;22982;42.848;25.468;2023-02-02T16:47:39;96212.03;;;1.40;100.00
37068;BME280;22982;42.848;25.468;2023-02-02T16:53:02;96233.53;;;1.75;100.00
37068;BME280;22982;42.848;25.468;2023-02-02T16:58:05;96241.22;;;1.78;100.00
37068;BME280;22982;42.848;25.468;2023-02-02T17:03:09;96236.06;;;1.77;100.00
37068;BME280;22982;42.848;25.468;2023-02-02T17:08:13;96272.44;;;1.70;100.00
37068;BME280;22982;42.848;25.468;2023-02-02T17:18:31;96238.16;;;1.62;100.00
37068;BME280;22982;42.848;25.468;2023-02-02T17:23:34;96244.88;;;1.69;100.00
37068;BME280;22982;42.848;25.468;2023-02-02T17:28:39;96251.84;;;1.67;100.00
37068;BME280;22982;42.848;25.468;2023-02-02T17:33:42;96227.38;;;1.46;100.00
37068;BME280;22982;42.848;25.468;2023-02-02T17:38:44;96227.06;;;1.24;100.00
37068;BME280;22982;42.848;25.468;2023-02-02T17:43:47;96228.00;;;1.22;100.00
37068;BME280;22982;42.848;25.468;2023-02-02T17:48:49;96262.94;;;1.37;100.00
37068;BME280;22982;42.848;25.468;2023-02-02T17:53:52;96290.44;;;1.39;100.00
37068;BME280;22982;42.848;25.468;2023-02-02T17:58:58;96274.50;;;1.20;100.00
37068;BME280;22982;42.848;25.468;2023-02-02T18:04:00;96315.50;;;1.36;100.00
37068;BME280;22982;42.848;25.468;2023-02-02T18:09:03;96322.56;;;1.27;100.00
37068;BME280;22982;42.848;25.468;2023-02-02T18:14:05;96287.47;;;1.19;100.00
37068;BME280;22982;42.848;25.468;2023-02-02T18:19:07;96296.81;;;1.23;100.00
37068;BME280;22982;42.848;25.468;2023-02-02T18:24:11;96293.47;;;1.19;100.00
37068;BME280;22982;42.848;25.468;2023-02-02T18:29:16;96286.91;;;1.04;100.00
37068;BME280;22982;42.848;25.468;2023-02-02T18:34:18;96308.97;;;1.19;100.00
37068;BME280;22982;42.848;25.468;2023-02-02T18:39:20;96326.09;;;1.23;100.00
37068;BME280;22982;42.848;25.468;2023-02-02T18:44:23;96315.03;;;1.18;100.00
37068;BME280;22982;42.848;25.468;2023-02-02T18:49:25;96316.03;;;1.12;100.00
37068;BME280;22982;42.848;25.468;2023-02-02T18:54:28;96264.88;;;0.89;100.00
37068;BME280;22982;42.848;25.468;2023-02-02T18:59:30;96291.06;;;1.11;100.00
37068;BME280;22982;42.848;25.468;2023-02-02T19:04:33;96290.47;;;1.00;100.00
37068;BME280;22982;42.848;25.468;2023-02-02T19:09:35;96275.22;;;0.89;100.00
37068;BME280;22982;42.848;25.468;2023-02-02T19:14:38;96284.66;;;0.90;100.00
37068;BME280;22982;42.848;25.468;2023-02-02T19:19:40;96291.25;;;1.04;100.00
37068;BME280;22982;42.848;25.468;2023-02-02T19:24:43;96297.66;;;0.86;100.00
37068;BME280;22982;42.848;25.468;2023-02-02T19:29:47;96327.50;;;0.98;100.00
37068;BME280;22982;42.848;25.468;2023-02-02T19:34:53;96336.75;;;1.08;98.00
37068;BME280;22982;42.848;25.468;2023-02-02T19:40:13;96344.47;;;1.11;98.30
37068;BME280;22982;42.848;25.468;2023-02-02T19:45:21;96342.75;;;1.10;97.38
37068;BME280;22982;42.848;25.468;2023-02-02T19:50:26;96346.22;;;1.09;98.32
37068;BME280;22982;42.848;25.468;2023-02-02T19:55:34;96352.28;;;1.06;98.60
37068;BME280;22982;42.848;25.468;2023-02-02T20:00:37;96326.13;;;0.81;99.59
37068;BME280;22982;42.848;25.468;2023-02-02T20:05:44;96348.06;;;1.04;100.00
37068;BME280;22982;42.848;25.468;2023-02-02T20:10:48;96340.91;;;1.15;95.95
37068;BME280;22982;42.848;25.468;2023-02-02T20:15:52;96328.13;;;1.10;95.28
37068;BME280;22982;42.848;25.468;2023-02-02T20:27:32;96328.34;;;1.00;94.03
37068;BME280;22982;42.848;25.468;2023-02-02T20:32:39;96315.31;;;1.04;92.60
37068;BME280;22982;42.848;25.468;2023-02-02T20:37:42;96321.78;;;1.24;93.48
37068;BME280;22982;42.848;25.468;2023-02-02T20:42:44;96333.91;;;1.20;92.55
37068;BME280;22982;42.848;25.468;2023-02-02T20:47:48;96310.91;;;1.09;92.60
37068;BME280;22982;42.848;25.468;2023-02-02T20:52:50;96322.97;;;1.09;91.43
37068;BME280;22982;42.848;25.468;2023-02-02T20:57:54;96329.03;;;1.08;91.02
37068;BME280;22982;42.848;25.468;2023-02-02T21:02:56;96347.00;;;1.12;90.88
37068;BME280;22982;42.848;25.468;2023-02-02T21:07:59;96330.97;;;0.98;90.63
37068;BME280;22982;42.848;25.468;2023-02-02T21:13:01;96303.88;;;0.77;91.48
37068;BME280;22982;42.848;25.468;2023-02-02T21:18:04;96345.44;;;1.05;90.46
37068;BME280;22982;42.848;25.468;2023-02-02T21:23:06;96372.28;;;1.37;89.19
37068;BME280;22982;42.848;25.468;2023-02-02T21:28:11;96320.31;;;1.12;91.00
37068;BME280;22982;42.848;25.468;2023-02-02T21:33:13;96361.31;;;1.27;88.30
37068;BME280;22982;42.848;25.468;2023-02-02T21:38:15;96335.25;;;0.98;89.14
37068;BME280;22982;42.848;25.468;2023-02-02T21:43:17;96318.91;;;0.99;88.36
37068;BME280;22982;42.848;25.468;2023-02-02T21:48:32;96321.38;;;1.03;89.09
37068;BME280;22982;42.848;25.468;2023-02-02T21:53:35;96332.50;;;1.07;88.35
37068;BME280;22982;42.848;25.468;2023-02-02T21:58:38;96336.59;;;1.15;88.81
37068;BME280;22982;42.848;25.468;2023-02-02T22:03:41;96352.47;;;1.38;86.14
37068;BME280;22982;42.848;25.468;2023-02-02T22:08:48;96352.69;;;1.28;86.38
37068;BME280;22982;42.848;25.468;2023-02-02T22:13:51;96308.59;;;0.97;86.89
37068;BME280;22982;42.848;25.468;2023-02-02T22:18:54;96371.78;;;1.21;88.40
37068;BME280;22982;42.848;25.468;2023-02-02T22:23:58;96347.69;;;1.19;88.39
37068;BME280;22982;42.848;25.468;2023-02-02T22:29:10;96346.78;;;1.23;88.38
37068;BME280;22982;42.848;25.468;2023-02-02T22:34:15;96301.41;;;1.10;87.49
37068;BME280;22982;42.848;25.468;2023-02-02T22:39:17;96310.06;;;1.09;90.18
37068;BME280;22982;42.848;25.468;2023-02-02T22:44:20;96340.41;;;1.38;96.83
37068;BME280;22982;42.848;25.468;2023-02-02T22:49:22;96315.28;;;1.06;95.27
37068;BME280;22982;42.848;25.468;2023-02-02T22:54:24;96341.25;;;1.00;97.01
37068;BME280;22982;42.848;25.468;2023-02-02T22:59:27;96335.53;;;0.85;97.83
37068;BME280;22982;42.848;25.468;2023-02-02T23:04:29;96332.63;;;0.59;100.00
37068;BME280;22982;42.848;25.468;2023-02-02T23:09:31;96333.41;;;0.64;100.00
37068;BME280;22982;42.848;25.468;2023-02-02T23:14:34;96351.25;;;0.74;100.00
37068;BME280;22982;42.848;25.468;2023-02-02T23:19:36;96294.69;;;0.64;98.40
37068;BME280;22982;42.848;25.468;2023-02-02T23:24:48;96312.88;;;1.00;93.50
37068;BME280;22982;42.848;25.468;2023-02-02T23:29:54;96310.47;;;1.29;90.79
37068;BME280;22982;42.848;25.468;2023-02-02T23:34:59;96311.88;;;1.43;93.62
37068;BME280;22982;42.848;25.468;2023-02-02T23:40:02;96284.84;;;1.20;96.09
37068;BME280;22982;42.848;25.468;2023-02-02T23:45:04;96334.66;;;1.25;97.06
37068;BME280;22982;42.848;25.468;2023-02-02T23:50:07;96283.34;;;0.71;100.00
37068;BME280;22982;42.848;25.468;2023-02-02T23:55:10;96326.06;;;0.86;100.00
